Time;durP1;ratioP1;P1;durP2;ratioP2;P2;SDS_P1;SDS_P2;PMS_P1;PMS_P2;Temp;Humidity;BMP_temperature;BMP_pressure;BME280_temperature;BME280_humidity;BME280_pressure;Samples;Min_cycle;Max_cycle;Signal;HPM_P1;HPM_P2
2022/04/22 00:01:30;;;;;;;;;;;;;;;;;;5094625;28;20402;-76
2022/04/22 00:03:55;;;;;;;;;;;;;;;;;;5095684;28;20484;-76
2022/04/22 00:06:21;;;;;;;;;;;;;;;;;;5077246;28;20002;-76
2022/04/22 00:08:46;;;;;;;;;;;;;;;;;;5095525;28;19918;-77
2022/04/22 00:11:29;;;;;;;;;;;;;;;;;;5095330;28;20007;-78
2022/04/22 00:13:55;;;;;;;;;;;;;;;;;;5095282;28;19916;-77
2022/04/22 00:16:21;;;;;;;;;;;;;;;;;;5095611;28;19924;-77
2022/04/22 00:18:46;;;;;;;;;;;;;;;;;;5095735;28;19920;-77
2022/04/22 00:21:12;;;;;;;;;;;;;;;;;;5095517;28;20029;-77
2022/04/22 00:23:37;;;;;;;;;;;;;;;;;;5095321;28;20336;-78
2022/04/22 00:26:03;;;;;;;;;;;;;;;;;;5095107;28;19919;-77
2022/04/22 00:28:28;;;;;;;;;;;;;;;;;;5095138;28;19961;-77
2022/04/22 00:30:54;;;;;;;;;;;;;;;;;;5095188;28;19970;-77
2022/04/22 00:33:19;;;;;;;;;;;;;;;;;;5094816;28;19916;-77
2022/04/22 00:35:45;;;;;;;;;;;;;;;;;;5095164;28;20003;-77
2022/04/22 00:38:11;;;;;;;;;;;;;;;;;;5095054;28;19961;-77
2022/04/22 00:40:37;;;;;;;;;;;;;;;;;;5094284;28;20760;-77
2022/04/22 00:43:21;;;;;;;;;;;;;;;;;;5094912;28;19923;-77
2022/04/22 00:45:47;;;;;;;;;;;;;;;;;;5094913;28;20372;-78
2022/04/22 00:48:13;;;;;;;;;;;;;;;;;;5094722;28;19919;-78
2022/04/22 00:50:39;;;;;;;;;;;;;;;;;;5094723;28;19939;-78
2022/04/22 00:53:05;;;;;;;;;;;;;;;;;;5094447;28;19916;-77
2022/04/22 00:55:30;;;;;;;;;;;;;;;;;;5094171;28;19916;-77
2022/04/22 00:57:56;;;;;;;;;;;;;;;;;;5094687;28;19927;-77
2022/04/22 01:00:22;;;;;;;;;;;;;;;;;;5094299;28;19916;-77
2022/04/22 01:02:47;;;;;;;;;;;;;;;;;;5077294;28;19920;-77
2022/04/22 01:10:40;;;;;;;;;;;;;;;;;;5073894;28;19916;-77
2022/04/22 01:13:07;;;;;;;;;;;;;;;;;;5074104;28;19927;-77
2022/04/22 01:15:34;;;;;;;;;;;;;;;;;;5074159;28;19927;-77
2022/04/22 01:17:59;;;;;;;;;;;;;;;;;;5074455;28;19913;-77
2022/04/22 01:20:25;;;;;;;;;;;;;;;;;;5074053;28;19924;-77
2022/04/22 01:22:50;;;;;;;;;;;;;;;;;;5074106;28;19921;-77
2022/04/22 01:25:16;;;;;;;;;;;;;;;;;;5073430;28;19921;-78
2022/04/22 01:27:42;;;;;;;;;;;;;;;;;;5073736;28;19916;-77
2022/04/22 01:30:07;;;;;;;;;;;;;;;;;;5073947;28;20400;-77
2022/04/22 01:32:32;;;;;;;;;;;;;;;;;;5073601;28;19964;-78
2022/04/22 01:34:58;;;;;;;;;;;;;;;;;;5073843;28;19923;-77
2022/04/22 01:37:23;;;;;;;;;;;;;;;;;;5073897;28;20323;-78
2022/04/22 01:39:48;;;;;;;;;;;;;;;;;;5073728;28;20373;-78
2022/04/22 01:42:14;;;;;;;;;;;;;;;;;;5073699;28;19970;-78
2022/04/22 01:44:39;;;;;;;;;;;;;;;;;;5073950;28;19924;-77
2022/04/22 01:47:05;;;;;;;;;;;;;;;;;;5073931;28;20270;-77
2022/04/22 01:49:31;;;;;;;;;;;;;;;;;;5072494;28;19997;-77
2022/04/22 01:51:56;;;;;;;;;;;;;;;;;;5074060;28;19916;-78
2022/04/22 01:54:21;;;;;;;;;;;;;;;;;;5073601;28;19916;-78
2022/04/22 01:56:47;;;;;;;;;;;;;;;;;;5073271;28;20349;-77
2022/04/22 01:59:12;;;;;;;;;;;;;;;;;;5073461;28;19978;-78
2022/04/22 02:01:37;;;;;;;;;;;;;;;;;;5072586;28;19920;-77
2022/04/22 02:04:03;;;;;;;;;;;;;;;;;;5073647;28;19916;-78
2022/04/22 02:06:28;;;;;;;;;;;;;;;;;;5073397;28;19925;-78
2022/04/22 02:08:54;;;;;;;;;;;;;;;;;;5073354;28;19962;-78
2022/04/22 02:11:19;;;;;;;;;;;;;;;;;;5073541;28;19916;-78
2022/04/22 02:13:44;;;;;;;;;;;;;;;;;;5073219;28;20020;-77
2022/04/22 02:16:10;;;;;;;;;;;;;;;;;;5073457;28;19955;-76
2022/04/22 02:18:38;;;;;;;;;;;;;;;;;;5073228;28;19923;-77
2022/04/22 02:21:05;;;;;;;;;;;;;;;;;;5085782;28;20373;-76
2022/04/22 02:23:31;;;;;;;;;;;;;;;;;;5093523;28;19916;-74
2022/04/22 02:25:57;;;;;;;;;;;;;;;;;;5097425;28;20017;-76
2022/04/22 02:28:34;;;;;;;;;;;;;;;;;;5097799;28;19924;-76
2022/04/22 02:31:00;;;;;;;;;;;;;;;;;;5097690;28;19923;-76
2022/04/22 02:33:25;;;;;;;;;;;;;;;;;;5097475;28;19916;-76
2022/04/22 02:35:50;;;;;;;;;;;;;;;;;;5097473;28;20381;-77
2022/04/22 02:38:16;;;;;;;;;;;;;;;;;;5096422;28;19958;-76
2022/04/22 02:46:09;;;;;;;;;;;;;;;;;;5097016;28;19920;-76
2022/04/22 02:48:34;;;;;;;;;;;;;;;;;;5097182;28;19969;-79
2022/04/22 02:51:00;;;;;;;;;;;;;;;;;;5097217;28;19916;-77
2022/04/22 02:53:25;;;;;;;;;;;;;;;;;;5096974;28;19916;-77
2022/04/22 02:55:51;;;;;;;;;;;;;;;;;;5098209;28;19967;-77
2022/04/22 02:58:17;;;;;;;;;;;;;;;;;;5111268;28;19927;-77
2022/04/22 03:00:43;;;;;;;;;;;;;;;;;;5118636;28;20369;-78
2022/04/22 03:03:08;;;;;;;;;;;;;;;;;;5117596;28;19915;-77
2022/04/22 03:05:34;;;;;;;;;;;;;;;;;;5116995;28;19923;-78
2022/04/22 03:08:00;;;;;;;;;;;;;;;;;;5117264;28;19915;-78
2022/04/22 03:10:26;;;;;;;;;;;;;;;;;;5098502;28;20281;-78
2022/04/22 03:12:51;;;;;;;;;;;;;;;;;;5117308;28;19935;-78
2022/04/22 03:15:17;;;;;;;;;;;;;;;;;;5115494;28;19916;-78
2022/04/22 03:17:42;;;;;;;;;;;;;;;;;;5116809;28;19915;-78
2022/04/22 03:20:08;;;;;;;;;;;;;;;;;;5116858;28;19916;-78
2022/04/22 03:22:33;;;;;;;;;;;;;;;;;;5114833;27;19923;-77
2022/04/22 03:25:00;;;;;;;;;;;;;;;;;;5094185;27;19916;-77
2022/04/22 03:27:25;;;;;;;;;;;;;;;;;;5094074;28;19961;-78
2022/04/22 03:29:50;;;;;;;;;;;;;;;;;;5094148;28;19920;-77
2022/04/22 03:32:15;;;;;;;;;;;;;;;;;;5093974;28;19916;-77
2022/04/22 03:34:41;;;;;;;;;;;;;;;;;;5093294;28;19920;-77
2022/04/22 03:37:06;;;;;;;;;;;;;;;;;;5093859;28;19923;-77
2022/04/22 03:39:31;;;;;;;;;;;;;;;;;;5096428;28;19919;-76
2022/04/22 03:41:58;;;;;;;;;;;;;;;;;;5096270;28;19927;-76
2022/04/22 03:44:26;;;;;;;;;;;;;;;;;;5095581;28;19920;-76
2022/04/22 03:46:51;;;;;;;;;;;;;;;;;;5095811;28;19941;-76
2022/04/22 03:49:16;;;;;;;;;;;;;;;;;;5095600;28;19928;-76
2022/04/22 03:51:43;;;;;;;;;;;;;;;;;;5095940;28;19916;-76
2022/04/22 03:54:08;;;;;;;;;;;;;;;;;;5095749;28;20327;-76
2022/04/22 03:59:18;;;;;;;;;;;;;;;;;;5095787;28;19912;-76
2022/04/22 04:01:43;;;;;;;;;;;;;;;;;;5095471;28;20010;-76
2022/04/22 04:04:09;;;;;;;;;;;;;;;;;;5095832;28;19916;-76
2022/04/22 04:06:35;;;;;;;;;;;;;;;;;;5095717;28;19916;-76
2022/04/22 04:17:09;;;;;;;;;;;;;;;;;;5094180;28;19916;-76
2022/04/22 04:25:02;;;;;;;;;;;;;;;;;;5095408;28;19916;-76
2022/04/22 04:27:29;;;;;;;;;;;;;;;;;;5095287;28;20010;-76
2022/04/22 04:29:54;;;;;;;;;;;;;;;;;;5095363;28;19920;-76
2022/04/22 04:32:19;;;;;;;;;;;;;;;;;;5093283;28;19916;-76
2022/04/22 04:34:45;;;;;;;;;;;;;;;;;;5095123;28;19960;-76
2022/04/22 04:37:13;;;;;;;;;;;;;;;;;;5095065;28;19916;-76
2022/04/22 04:39:39;;;;;;;;;;;;;;;;;;5094087;28;19942;-76
2022/04/22 04:42:04;;;;;;;;;;;;;;;;;;5094703;28;19920;-76
2022/04/22 04:44:29;;;;;;;;;;;;;;;;;;5095226;28;19976;-75
2022/04/22 04:46:55;;;;;;;;;;;;;;;;;;5094432;28;19916;-76
2022/04/22 04:49:21;;;;;;;;;;;;;;;;;;5094857;28;19923;-76
2022/04/22 04:51:46;;;;;;;;;;;;;;;;;;5093577;28;19927;-76
2022/04/22 04:54:11;;;;;;;;;;;;;;;;;;5094809;28;19916;-76
2022/04/22 04:56:37;;;;;;;;;;;;;;;;;;5094495;28;20368;-76
2022/04/22 04:59:02;;;;;;;;;;;;;;;;;;5094299;28;19924;-76
2022/04/22 05:01:27;;;;;;;;;;;;;;;;;;5094702;28;20294;-76
2022/04/22 05:03:53;;;;;;;;;;;;;;;;;;5094235;28;19919;-75
2022/04/22 05:06:19;;;;;;;;;;;;;;;;;;5094401;28;19956;-76
2022/04/22 05:08:44;;;;;;;;;;;;;;;;;;5094394;28;20304;-75
2022/04/22 05:11:10;;;;;;;;;;;;;;;;;;5094610;28;19916;-75
2022/04/22 05:13:35;;;;;;;;;;;;;;;;;;5093781;28;19952;-75
2022/04/22 05:16:00;;;;;;;;;;;;;;;;;;5094704;28;19916;-75
2022/04/22 05:18:26;;;;;;;;;;;;;;;;;;5094431;28;19912;-76
2022/04/22 05:20:51;;;;;;;;;;;;;;;;;;5094201;28;19955;-75
2022/04/22 05:23:16;;;;;;;;;;;;;;;;;;5094614;28;20283;-76
2022/04/22 05:25:42;;;;;;;;;;;;;;;;;;5094538;28;20384;-75
2022/04/22 05:28:07;;;;;;;;;;;;;;;;;;5094193;28;19916;-75
2022/04/22 05:33:16;;;;;;;;;;;;;;;;;;5089152;28;20326;-75
2022/04/22 05:35:42;;;;;;;;;;;;;;;;;;5072776;28;20021;-75
2022/04/22 05:38:08;;;;;;;;;;;;;;;;;;5072570;28;20378;-76
2022/04/22 05:40:34;;;;;;;;;;;;;;;;;;5072507;28;19920;-75
2022/04/22 05:43:00;;;;;;;;;;;;;;;;;;5072598;28;19920;-76
2022/04/22 05:45:26;;;;;;;;;;;;;;;;;;5073857;28;19916;-76
2022/04/22 05:47:52;;;;;;;;;;;;;;;;;;5073646;28;19917;-76
2022/04/22 05:50:18;;;;;;;;;;;;;;;;;;5072726;28;19970;-76
2022/04/22 05:52:43;;;;;;;;;;;;;;;;;;5074074;28;20418;-76
2022/04/22 05:55:10;;;;;;;;;;;;;;;;;;5073748;28;19970;-76
2022/04/22 05:57:36;;;;;;;;;;;;;;;;;;5074287;28;20259;-75
2022/04/22 06:00:04;;;;;;;;;;;;;;;;;;5078049;28;19918;-79
2022/04/22 06:02:37;;;;;;;;;;;;;;;;;;5085021;28;20275;-78
2022/04/22 06:05:03;;;;;;;;;;;;;;;;;;5092336;28;19969;-77
2022/04/22 06:07:28;;;;;;;;;;;;;;;;;;5097849;28;19916;-78
2022/04/22 06:12:38;;;;;;;;;;;;;;;;;;5115471;28;19916;-78
2022/04/22 06:15:04;;;;;;;;;;;;;;;;;;5118101;28;19924;-78
2022/04/22 06:17:30;;;;;;;;;;;;;;;;;;5118804;27;19915;-77
2022/04/22 06:19:56;;;;;;;;;;;;;;;;;;5118175;27;19915;-78
2022/04/22 06:22:22;;;;;;;;;;;;;;;;;;5118517;28;19920;-77
2022/04/22 06:24:47;;;;;;;;;;;;;;;;;;5118796;28;19916;-77
2022/04/22 06:27:12;;;;;;;;;;;;;;;;;;5119584;28;19915;-76
2022/04/22 06:29:38;;;;;;;;;;;;;;;;;;5118504;28;19923;-76
2022/04/22 06:32:03;;;;;;;;;;;;;;;;;;5118573;28;19954;-76
2022/04/22 06:34:29;;;;;;;;;;;;;;;;;;5118543;28;20373;-76
2022/04/22 06:36:54;;;;;;;;;;;;;;;;;;5118124;28;19916;-76
2022/04/22 06:39:20;;;;;;;;;;;;;;;;;;5118071;28;19941;-77
2022/04/22 06:47:13;;;;;;;;;;;;;;;;;;5097127;28;19916;-77
2022/04/22 06:49:39;;;;;;;;;;;;;;;;;;5097093;28;19920;-77
2022/04/22 06:52:06;;;;;;;;;;;;;;;;;;5096920;28;20335;-77
2022/04/22 06:54:32;;;;;;;;;;;;;;;;;;5096458;28;19916;-77
2022/04/22 06:56:59;;;;;;;;;;;;;;;;;;5096756;28;19927;-77
2022/04/22 06:59:24;;;;;;;;;;;;;;;;;;5096461;28;19916;-76
2022/04/22 07:01:50;;;;;;;;;;;;;;;;;;5098375;28;19920;-78
2022/04/22 07:04:15;;;;;;;;;;;;;;;;;;5098324;28;19916;-77
2022/04/22 07:06:41;;;;;;;;;;;;;;;;;;5097961;28;19916;-78
2022/04/22 07:09:07;;;;;;;;;;;;;;;;;;5097904;28;20012;-78
2022/04/22 07:11:34;;;;;;;;;;;;;;;;;;5096494;28;19912;-78
2022/04/22 07:14:00;;;;;;;;;;;;;;;;;;5095619;28;19916;-79
2022/04/22 07:16:26;;;;;;;;;;;;;;;;;;5095197;28;20019;-78
2022/04/22 07:18:59;;;;;;;;;;;;;;;;;;5096822;28;19911;-77
2022/04/22 07:21:25;;;;;;;;;;;;;;;;;;5096161;28;19955;-78
2022/04/22 07:23:51;;;;;;;;;;;;;;;;;;5096448;28;19912;-78
2022/04/22 07:26:17;;;;;;;;;;;;;;;;;;5094547;28;19916;-77
2022/04/22 07:28:45;;;;;;;;;;;;;;;;;;5096250;28;19920;-77
2022/04/22 07:31:10;;;;;;;;;;;;;;;;;;5106325;28;19915;-77
2022/04/22 07:33:36;;;;;;;;;;;;;;;;;;5095828;27;19962;-77
2022/04/22 07:36:01;;;;;;;;;;;;;;;;;;5096306;28;20275;-77
2022/04/22 07:38:28;;;;;;;;;;;;;;;;;;5096035;28;19919;-77
2022/04/22 07:40:53;;;;;;;;;;;;;;;;;;5095962;28;19970;-78
2022/04/22 07:48:53;;;;;;;;;;;;;;;;;;5095703;28;19927;-76
2022/04/22 07:51:19;;;;;;;;;;;;;;;;;;5095635;28;19916;-77
2022/04/22 07:53:45;;;;;;;;;;;;;;;;;;5097223;28;19916;-78
2022/04/22 07:56:10;;;;;;;;;;;;;;;;;;5100229;28;19916;-78
2022/04/22 07:58:36;;;;;;;;;;;;;;;;;;5102233;28;19941;-78
2022/04/22 08:01:02;;;;;;;;;;;;;;;;;;5102561;28;19917;-78
2022/04/22 08:03:27;;;;;;;;;;;;;;;;;;5100081;28;20276;-78
2022/04/22 08:05:53;;;;;;;;;;;;;;;;;;5102362;28;19920;-78
2022/04/22 08:08:18;;;;;;;;;;;;;;;;;;5100565;28;19916;-79
2022/04/22 08:10:45;;;;;;;;;;;;;;;;;;5098872;28;19920;-82
2022/04/22 08:13:10;;;;;;;;;;;;;;;;;;5098719;28;19916;-81
2022/04/22 08:15:35;;;;;;;;;;;;;;;;;;5099018;28;19916;-80
2022/04/22 08:18:01;;;;;;;;;;;;;;;;;;5091989;28;20006;-78
2022/04/22 08:20:29;;;;;;;;;;;;;;;;;;5087145;28;19917;-78
2022/04/22 08:22:55;;;;;;;;;;;;;;;;;;5085186;28;19920;-80
2022/04/22 08:25:20;;;;;;;;;;;;;;;;;;5084154;28;19923;-81
2022/04/22 08:27:46;;;;;;;;;;;;;;;;;;5091956;28;19923;-81
2022/04/22 08:30:12;;;;;;;;;;;;;;;;;;5100360;28;19920;-78
2022/04/22 08:32:37;;;;;;;;;;;;;;;;;;5100036;28;19972;-80
2022/04/22 08:35:03;;;;;;;;;;;;;;;;;;5078596;28;19920;-77
2022/04/22 08:37:29;;;;;;;;;;;;;;;;;;5074927;28;19939;-77
2022/04/22 08:39:55;;;;;;;;;;;;;;;;;;5074218;28;19916;-76
2022/04/22 08:42:24;;;;;;;;;;;;;;;;;;5074049;28;20382;-77
2022/04/22 08:44:51;;;;;;;;;;;;;;;;;;5081063;28;19916;-76
2022/04/22 08:50:02;;;;;;;;;;;;;;;;;;5094852;28;19923;-76
2022/04/22 08:52:33;;;;;;;;;;;;;;;;;;5093539;28;20014;-76
2022/04/22 08:54:59;;;;;;;;;;;;;;;;;;5094738;28;19948;-76
2022/04/22 08:57:24;;;;;;;;;;;;;;;;;;5093363;28;19920;-76
2022/04/22 08:59:50;;;;;;;;;;;;;;;;;;5093159;28;19939;-77
2022/04/22 09:02:16;;;;;;;;;;;;;;;;;;5092897;28;19974;-76
2022/04/22 09:04:42;;;;;;;;;;;;;;;;;;5092262;28;19917;-76
2022/04/22 09:07:13;;;;;;;;;;;;;;;;;;5091226;28;19970;-77
2022/04/22 09:09:41;;;;;;;;;;;;;;;;;;5092161;28;19923;-76
2022/04/22 09:12:07;;;;;;;;;;;;;;;;;;5092043;28;19916;-75
2022/04/22 09:14:33;;;;;;;;;;;;;;;;;;5093351;28;20324;-76
2022/04/22 09:16:58;;;;;;;;;;;;;;;;;;5094343;28;19920;-77
2022/04/22 09:19:23;;;;;;;;;;;;;;;;;;5094352;28;20255;-76
2022/04/22 09:22:00;;;;;;;;;;;;;;;;;;5093004;28;19920;-76
2022/04/22 09:24:25;;;;;;;;;;;;;;;;;;5094282;28;19916;-76
2022/04/22 09:27:08;;;;;;;;;;;;;;;;;;5094245;28;19916;-76
2022/04/22 09:29:41;;;;;;;;;;;;;;;;;;5094268;28;19915;-76
2022/04/22 09:32:09;;;;;;;;;;;;;;;;;;5092909;28;19916;-76
2022/04/22 09:34:36;;;;;;;;;;;;;;;;;;5094324;28;20014;-76
2022/04/22 09:42:47;;;;;;;;;;;;;;;;;;5093798;28;19946;-76
2022/04/22 09:45:13;;;;;;;;;;;;;;;;;;5093080;28;19954;-75
2022/04/22 09:47:40;;;;;;;;;;;;;;;;;;5093898;28;20273;-76
2022/04/22 09:50:10;;;;;;;;;;;;;;;;;;5093981;28;19938;-75
2022/04/22 09:52:35;;;;;;;;;;;;;;;;;;5092610;28;19961;-75
2022/04/22 09:55:02;;;;;;;;;;;;;;;;;;5093953;28;19916;-75
2022/04/22 09:57:27;;;;;;;;;;;;;;;;;;5092406;28;19920;-76
2022/04/22 09:59:54;;;;;;;;;;;;;;;;;;5091978;28;21536;-76
2022/04/22 10:02:21;;;;;;;;;;;;;;;;;;5093889;28;19926;-76
2022/04/22 10:04:47;;;;;;;;;;;;;;;;;;5093662;28;20324;-75
2022/04/22 10:07:12;;;;;;;;;;;;;;;;;;5093884;28;19961;-75
2022/04/22 10:09:39;;;;;;;;;;;;;;;;;;5092596;28;20370;-75
2022/04/22 10:12:08;;;;;;;;;;;;;;;;;;5093622;28;19993;-75
2022/04/22 10:14:35;;;;;;;;;;;;;;;;;;5093659;28;20065;-75
2022/04/22 10:17:02;;;;;;;;;;;;;;;;;;5092749;28;19916;-75
2022/04/22 10:19:27;;;;;;;;;;;;;;;;;;5093655;28;19923;-75
2022/04/22 10:21:52;;;;;;;;;;;;;;;;;;5093438;28;19920;-75
2022/04/22 10:24:19;;;;;;;;;;;;;;;;;;5092459;28;19916;-75
2022/04/22 10:26:45;;;;;;;;;;;;;;;;;;5093357;28;19970;-75
2022/04/22 10:29:12;;;;;;;;;;;;;;;;;;5093507;28;19967;-75
2022/04/22 10:31:38;;;;;;;;;;;;;;;;;;5096740;28;19922;-78
2022/04/22 10:34:07;;;;;;;;;;;;;;;;;;5095017;28;20003;-78
2022/04/22 10:36:33;;;;;;;;;;;;;;;;;;5094786;28;19916;-77
2022/04/22 10:38:59;;;;;;;;;;;;;;;;;;5072481;28;19916;-77
2022/04/22 10:41:24;;;;;;;;;;;;;;;;;;5074321;28;19971;-78
2022/04/22 10:49:18;;;;;;;;;;;;;;;;;;5078156;28;19970;-77
2022/04/22 10:52:00;;;;;;;;;;;;;;;;;;5078726;28;19913;-78
2022/04/22 10:54:43;;;;;;;;;;;;;;;;;;5077825;28;19916;-78
2022/04/22 10:57:16;;;;;;;;;;;;;;;;;;5077112;28;20290;-78
2022/04/22 10:59:41;;;;;;;;;;;;;;;;;;5077726;28;19916;-78
2022/04/22 11:02:25;;;;;;;;;;;;;;;;;;5076854;28;19923;-77
2022/04/22 11:05:11;;;;;;;;;;;;;;;;;;5097946;28;19916;-78
2022/04/22 11:07:58;;;;;;;;;;;;;;;;;;5097711;28;19922;-78
2022/04/22 11:10:25;;;;;;;;;;;;;;;;;;5096153;28;19962;-76
2022/04/22 11:12:54;;;;;;;;;;;;;;;;;;5096981;28;19923;-77
2022/04/22 11:15:38;;;;;;;;;;;;;;;;;;5096458;28;19923;-76
2022/04/22 11:18:03;;;;;;;;;;;;;;;;;;5096824;28;19927;-76
2022/04/22 11:20:29;;;;;;;;;;;;;;;;;;5096506;28;19912;-76
2022/04/22 11:22:56;;;;;;;;;;;;;;;;;;5096556;28;19920;-76
2022/04/22 11:25:25;;;;;;;;;;;;;;;;;;5096405;28;19927;-76
2022/04/22 11:27:52;;;;;;;;;;;;;;;;;;5096073;28;19923;-76
2022/04/22 11:30:18;;;;;;;;;;;;;;;;;;5096780;28;20007;-76
2022/04/22 11:32:47;;;;;;;;;;;;;;;;;;5094726;28;20460;-76
2022/04/22 11:35:13;;;;;;;;;;;;;;;;;;5096479;28;19942;-76
2022/04/22 11:37:39;;;;;;;;;;;;;;;;;;5096133;28;19939;-76
2022/04/22 11:40:08;;;;;;;;;;;;;;;;;;5095138;28;19922;-76
2022/04/22 11:42:39;;;;;;;;;;;;;;;;;;5096215;28;19935;-76
2022/04/22 11:45:06;;;;;;;;;;;;;;;;;;5096249;28;19923;-76
2022/04/22 11:47:32;;;;;;;;;;;;;;;;;;5096068;28;19963;-76
2022/04/22 11:49:57;;;;;;;;;;;;;;;;;;5095915;28;19974;-76
2022/04/22 11:52:23;;;;;;;;;;;;;;;;;;5094661;28;19916;-76
2022/04/22 11:54:49;;;;;;;;;;;;;;;;;;5094685;28;19916;-76
2022/04/22 11:57:16;;;;;;;;;;;;;;;;;;5095615;28;19931;-76
2022/04/22 12:05:31;;;;;;;;;;;;;;;;;;5096251;28;19920;-76
2022/04/22 12:05:33;;;;;;;;;;;;;;;;;;5094057;28;19951;-76
2022/04/22 12:08:04;;;;;;;;;;;;;;;;;;5095346;28;20388;-77
2022/04/22 12:10:29;;;;;;;;;;;;;;;;;;5095562;28;19970;-77
2022/04/22 12:12:57;;;;;;;;;;;;;;;;;;5094062;28;19963;-77
2022/04/22 12:15:22;;;;;;;;;;;;;;;;;;5095398;28;20401;-76
2022/04/22 12:17:47;;;;;;;;;;;;;;;;;;5095601;28;19916;-77
2022/04/22 12:20:14;;;;;;;;;;;;;;;;;;5093853;28;19984;-76
2022/04/22 12:22:39;;;;;;;;;;;;;;;;;;5095345;28;20380;-76
2022/04/22 12:25:09;;;;;;;;;;;;;;;;;;5094357;28;19912;-76
2022/04/22 12:27:34;;;;;;;;;;;;;;;;;;5094160;28;19920;-76
2022/04/22 12:30:00;;;;;;;;;;;;;;;;;;5093894;28;19922;-77
2022/04/22 12:32:26;;;;;;;;;;;;;;;;;;5095263;28;19916;-76
2022/04/22 12:34:51;;;;;;;;;;;;;;;;;;5094429;28;19923;-76
2022/04/22 12:37:17;;;;;;;;;;;;;;;;;;5093821;28;19916;-76
2022/04/22 12:39:49;;;;;;;;;;;;;;;;;;5093930;28;19920;-76
2022/04/22 12:42:15;;;;;;;;;;;;;;;;;;5094569;28;19931;-76
2022/04/22 12:44:40;;;;;;;;;;;;;;;;;;5095201;28;20002;-76
2022/04/22 12:52:35;;;;;;;;;;;;;;;;;;5094878;28;20415;-76
2022/04/22 12:55:08;;;;;;;;;;;;;;;;;;5094751;28;19920;-76
2022/04/22 12:57:33;;;;;;;;;;;;;;;;;;5095130;28;19927;-76
2022/04/22 12:59:59;;;;;;;;;;;;;;;;;;5094849;28;19916;-76
2022/04/22 13:02:27;;;;;;;;;;;;;;;;;;5093315;28;19920;-76
2022/04/22 13:04:54;;;;;;;;;;;;;;;;;;5075995;28;20386;-76
2022/04/22 13:07:21;;;;;;;;;;;;;;;;;;5088108;28;19952;-76
2022/04/22 13:09:46;;;;;;;;;;;;;;;;;;5074130;28;19920;-76
2022/04/22 13:12:12;;;;;;;;;;;;;;;;;;5072497;28;20001;-76
2022/04/22 13:14:37;;;;;;;;;;;;;;;;;;5056149;28;19923;-76
2022/04/22 13:17:03;;;;;;;;;;;;;;;;;;5074079;28;20382;-76
2022/04/22 13:19:28;;;;;;;;;;;;;;;;;;5074169;28;19924;-76
2022/04/22 13:21:54;;;;;;;;;;;;;;;;;;5073737;28;19963;-76
2022/04/22 13:24:19;;;;;;;;;;;;;;;;;;5073675;28;19917;-76
2022/04/22 13:26:44;;;;;;;;;;;;;;;;;;5073889;28;19912;-76
2022/04/22 13:29:10;;;;;;;;;;;;;;;;;;5073004;28;19917;-76
2022/04/22 13:31:35;;;;;;;;;;;;;;;;;;5072769;28;19923;-76
2022/04/22 13:34:03;;;;;;;;;;;;;;;;;;5073973;28;19917;-76
2022/04/22 13:36:31;;;;;;;;;;;;;;;;;;5076966;28;19915;-76
2022/04/22 13:38:57;;;;;;;;;;;;;;;;;;5093337;28;19990;-76
2022/04/22 13:41:22;;;;;;;;;;;;;;;;;;5094101;28;19920;-76
2022/04/22 13:43:48;;;;;;;;;;;;;;;;;;5093989;28;19964;-76
2022/04/22 13:54:25;;;;;;;;;;;;;;;;;;5092871;28;20316;-76
2022/04/22 13:56:50;;;;;;;;;;;;;;;;;;5093678;28;19920;-76
2022/04/22 13:59:16;;;;;;;;;;;;;;;;;;5092651;28;19995;-76
2022/04/22 14:01:42;;;;;;;;;;;;;;;;;;5092545;28;19930;-76
2022/04/22 14:04:08;;;;;;;;;;;;;;;;;;5092595;28;19916;-76
2022/04/22 14:06:33;;;;;;;;;;;;;;;;;;5092493;28;19985;-76
2022/04/22 14:08:59;;;;;;;;;;;;;;;;;;5093920;28;19916;-76
2022/04/22 14:11:27;;;;;;;;;;;;;;;;;;5093795;28;19960;-76
2022/04/22 14:13:52;;;;;;;;;;;;;;;;;;5093720;28;19916;-76
2022/04/22 14:16:17;;;;;;;;;;;;;;;;;;5093338;28;20407;-76
2022/04/22 14:18:43;;;;;;;;;;;;;;;;;;5094155;28;19923;-76
2022/04/22 14:21:09;;;;;;;;;;;;;;;;;;5097732;28;19923;-76
2022/04/22 14:23:34;;;;;;;;;;;;;;;;;;5096017;28;20274;-76
2022/04/22 14:25:59;;;;;;;;;;;;;;;;;;5097742;28;19969;-76
2022/04/22 14:28:26;;;;;;;;;;;;;;;;;;5096108;28;19916;-76
2022/04/22 14:30:52;;;;;;;;;;;;;;;;;;5097439;28;20353;-77
2022/04/22 14:33:17;;;;;;;;;;;;;;;;;;5075627;28;20011;-76
2022/04/22 14:35:43;;;;;;;;;;;;;;;;;;5077228;28;20019;-76
2022/04/22 14:38:08;;;;;;;;;;;;;;;;;;5075790;28;19923;-76
2022/04/22 14:40:34;;;;;;;;;;;;;;;;;;5076452;28;19924;-76
2022/04/22 14:42:59;;;;;;;;;;;;;;;;;;5076557;28;20369;-76
2022/04/22 14:45:26;;;;;;;;;;;;;;;;;;5076945;28;20274;-76
2022/04/22 14:47:51;;;;;;;;;;;;;;;;;;5094456;28;19916;-76
2022/04/22 14:50:17;;;;;;;;;;;;;;;;;;5095968;28;20411;-76
2022/04/22 14:52:43;;;;;;;;;;;;;;;;;;5097279;28;19916;-75
2022/04/22 14:55:08;;;;;;;;;;;;;;;;;;5097107;28;19916;-76
2022/04/22 14:57:34;;;;;;;;;;;;;;;;;;5096354;28;20389;-76
2022/04/22 14:59:59;;;;;;;;;;;;;;;;;;5096923;28;19928;-76
2022/04/22 15:02:24;;;;;;;;;;;;;;;;;;5096779;28;19927;-76
2022/04/22 15:04:51;;;;;;;;;;;;;;;;;;5096171;28;19916;-76
2022/04/22 15:07:19;;;;;;;;;;;;;;;;;;5096872;28;19916;-76
2022/04/22 15:09:44;;;;;;;;;;;;;;;;;;5096862;28;19920;-76
2022/04/22 15:12:10;;;;;;;;;;;;;;;;;;5095258;28;20322;-76
2022/04/22 15:14:35;;;;;;;;;;;;;;;;;;5096511;28;19970;-76
2022/04/22 15:17:01;;;;;;;;;;;;;;;;;;5096526;28;19916;-76
2022/04/22 15:24:55;;;;;;;;;;;;;;;;;;5095346;28;19955;-76
2022/04/22 15:27:20;;;;;;;;;;;;;;;;;;5096360;28;20001;-76
2022/04/22 15:29:45;;;;;;;;;;;;;;;;;;5095947;28;19969;-76
2022/04/22 15:32:11;;;;;;;;;;;;;;;;;;5095428;28;19923;-76
2022/04/22 15:34:36;;;;;;;;;;;;;;;;;;5078296;28;20040;-76
2022/04/22 15:37:03;;;;;;;;;;;;;;;;;;5096319;28;20342;-76
2022/04/22 15:39:28;;;;;;;;;;;;;;;;;;5095949;28;19916;-76
2022/04/22 15:41:54;;;;;;;;;;;;;;;;;;5096170;28;19977;-76
2022/04/22 15:44:26;;;;;;;;;;;;;;;;;;5096307;28;19920;-76
2022/04/22 15:46:52;;;;;;;;;;;;;;;;;;5096175;28;19916;-76
2022/04/22 15:49:17;;;;;;;;;;;;;;;;;;5095720;28;20448;-76
2022/04/22 15:51:43;;;;;;;;;;;;;;;;;;5095868;28;20274;-76
2022/04/22 15:54:08;;;;;;;;;;;;;;;;;;5093957;28;20014;-76
2022/04/22 15:56:35;;;;;;;;;;;;;;;;;;5095514;28;20002;-77
2022/04/22 15:59:00;;;;;;;;;;;;;;;;;;5095006;28;19923;-76
2022/04/22 16:01:33;;;;;;;;;;;;;;;;;;5095862;28;19920;-76
2022/04/22 16:03:59;;;;;;;;;;;;;;;;;;5094844;28;19924;-76
2022/04/22 16:06:24;;;;;;;;;;;;;;;;;;5094382;28;20282;-76
2022/04/22 16:08:51;;;;;;;;;;;;;;;;;;5095652;28;19969;-76
2022/04/22 16:16:45;;;;;;;;;;;;;;;;;;5095477;28;19963;-75
2022/04/22 16:19:11;;;;;;;;;;;;;;;;;;5093548;28;19951;-76
2022/04/22 16:21:36;;;;;;;;;;;;;;;;;;5095442;28;19920;-76
2022/04/22 16:24:03;;;;;;;;;;;;;;;;;;5094989;28;20482;-75
2022/04/22 16:26:29;;;;;;;;;;;;;;;;;;5093976;28;19920;-76
2022/04/22 16:28:55;;;;;;;;;;;;;;;;;;5095285;28;19916;-76
2022/04/22 16:31:22;;;;;;;;;;;;;;;;;;5095262;28;20365;-75
2022/04/22 16:33:48;;;;;;;;;;;;;;;;;;5094979;28;19916;-76
2022/04/22 16:36:14;;;;;;;;;;;;;;;;;;5094778;28;19922;-74
2022/04/22 16:38:39;;;;;;;;;;;;;;;;;;5094568;28;19931;-76
2022/04/22 16:41:06;;;;;;;;;;;;;;;;;;5094099;28;19916;-77
2022/04/22 16:43:31;;;;;;;;;;;;;;;;;;5096148;28;19920;-77
2022/04/22 16:45:56;;;;;;;;;;;;;;;;;;5095361;28;19916;-77
2022/04/22 16:48:22;;;;;;;;;;;;;;;;;;5088546;28;19920;-77
2022/04/22 16:50:48;;;;;;;;;;;;;;;;;;5072551;28;19923;-77
2022/04/22 16:53:14;;;;;;;;;;;;;;;;;;5073477;28;19916;-77
2022/04/22 16:55:39;;;;;;;;;;;;;;;;;;5087200;28;19923;-77
2022/04/22 16:58:04;;;;;;;;;;;;;;;;;;5074905;28;19921;-75
2022/04/22 17:00:32;;;;;;;;;;;;;;;;;;5071900;28;19970;-76
2022/04/22 17:02:57;;;;;;;;;;;;;;;;;;5073700;28;19920;-75
2022/04/22 17:05:23;;;;;;;;;;;;;;;;;;5074279;28;19924;-75
2022/04/22 17:07:49;;;;;;;;;;;;;;;;;;5087724;28;19923;-75
2022/04/22 17:10:15;;;;;;;;;;;;;;;;;;5082767;28;19919;-75
2022/04/22 17:12:40;;;;;;;;;;;;;;;;;;5084791;28;20293;-75
2022/04/22 17:23:17;;;;;;;;;;;;;;;;;;5073687;28;19924;-75
2022/04/22 17:25:42;;;;;;;;;;;;;;;;;;5084278;28;19923;-75
2022/04/22 17:28:08;;;;;;;;;;;;;;;;;;5083367;28;19916;-75
2022/04/22 17:30:33;;;;;;;;;;;;;;;;;;5082590;28;20015;-75
2022/04/22 17:32:59;;;;;;;;;;;;;;;;;;5083693;28;20274;-76
2022/04/22 17:35:25;;;;;;;;;;;;;;;;;;5081412;28;20393;-75
2022/04/22 17:37:51;;;;;;;;;;;;;;;;;;5083080;28;20394;-75
2022/04/22 17:40:20;;;;;;;;;;;;;;;;;;5081678;28;19917;-73
2022/04/22 17:42:45;;;;;;;;;;;;;;;;;;5083363;28;19920;-74
2022/04/22 17:45:11;;;;;;;;;;;;;;;;;;5083530;28;19920;-74
2022/04/22 17:47:36;;;;;;;;;;;;;;;;;;5082111;28;19917;-74
2022/04/22 17:50:02;;;;;;;;;;;;;;;;;;5082487;28;20293;-74
2022/04/22 17:52:27;;;;;;;;;;;;;;;;;;5074391;28;20023;-74
2022/04/22 17:54:53;;;;;;;;;;;;;;;;;;5083113;28;19920;-74
2022/04/22 17:57:19;;;;;;;;;;;;;;;;;;5081031;28;20011;-74
2022/04/22 17:59:46;;;;;;;;;;;;;;;;;;5082434;28;19920;-75
2022/04/22 18:02:13;;;;;;;;;;;;;;;;;;5081547;28;19920;-77
2022/04/22 18:04:40;;;;;;;;;;;;;;;;;;5084388;28;19984;-76
2022/04/22 18:07:05;;;;;;;;;;;;;;;;;;5083978;28;19977;-76
2022/04/22 18:09:31;;;;;;;;;;;;;;;;;;5081635;28;19920;-76
2022/04/22 18:11:58;;;;;;;;;;;;;;;;;;5093038;28;19922;-76
2022/04/22 18:17:08;;;;;;;;;;;;;;;;;;5094354;28;19916;-77